sensor_id;sensor_type;location;lat;lon;timestamp;P1;durP1;ratioP1;P2;durP2;ratioP2
74074;SDS011;62428;51.412;5.432;2023-07-08T00:00:53;3.60;;;2.38;;
74074;SDS011;62428;51.412;5.432;2023-07-08T00:03:19;5.10;;;2.43;;
74074;SDS011;62428;51.412;5.432;2023-07-08T00:05:45;4.72;;;2.38;;
74074;SDS011;62428;51.412;5.432;2023-07-08T00:08:15;4.53;;;2.35;;
74074;SDS011;62428;51.412;5.432;2023-07-08T00:10:42;5.70;;;2.42;;
74074;SDS011;62428;51.412;5.432;2023-07-08T00:13:07;4.87;;;2.67;;
74074;SDS011;62428;51.412;5.432;2023-07-08T00:15:34;4.85;;;2.30;;
74074;SDS011;62428;51.412;5.432;2023-07-08T00:18:01;6.88;;;2.38;;
74074;SDS011;62428;51.412;5.432;2023-07-08T00:20:38;6.90;;;2.40;;
74074;SDS011;62428;51.412;5.432;2023-07-08T00:23:07;4.57;;;2.20;;
74074;SDS011;62428;51.412;5.432;2023-07-08T00:25:34;5.32;;;2.40;;
74074;SDS011;62428;51.412;5.432;2023-07-08T00:27:59;4.97;;;2.40;;
74074;SDS011;62428;51.412;5.432;2023-07-08T00:30:31;4.17;;;2.30;;
74074;SDS011;62428;51.412;5.432;2023-07-08T00:32:57;5.60;;;2.70;;
74074;SDS011;62428;51.412;5.432;2023-07-08T00:37:51;5.47;;;2.40;;
74074;SDS011;62428;51.412;5.432;2023-07-08T00:40:27;5.30;;;2.60;;
74074;SDS011;62428;51.412;5.432;2023-07-08T00:42:58;5.13;;;2.57;;
74074;SDS011;62428;51.412;5.432;2023-07-08T00:48:03;5.22;;;2.65;;
74074;SDS011;62428;51.412;5.432;2023-07-08T00:50:32;4.35;;;2.63;;
74074;SDS011;62428;51.412;5.432;2023-07-08T00:55:55;5.95;;;2.45;;
74074;SDS011;62428;51.412;5.432;2023-07-08T00:58:25;4.20;;;2.47;;
74074;SDS011;62428;51.412;5.432;2023-07-08T01:00:56;7.03;;;2.67;;
74074;SDS011;62428;51.412;5.432;2023-07-08T01:03:22;3.50;;;2.37;;
74074;SDS011;62428;51.412;5.432;2023-07-08T01:05:49;3.25;;;2.20;;
74074;SDS011;62428;51.412;5.432;2023-07-08T01:08:16;8.60;;;2.53;;
74074;SDS011;62428;51.412;5.432;2023-07-08T01:10:49;5.57;;;2.30;;
74074;SDS011;62428;51.412;5.432;2023-07-08T01:13:19;4.50;;;2.45;;
74074;SDS011;62428;51.412;5.432;2023-07-08T01:15:47;6.70;;;2.55;;
74074;SDS011;62428;51.412;5.432;2023-07-08T01:18:14;5.15;;;2.63;;
74074;SDS011;62428;51.412;5.432;2023-07-08T01:20:42;7.03;;;2.13;;
74074;SDS011;62428;51.412;5.432;2023-07-08T01:23:11;6.57;;;2.25;;
74074;SDS011;62428;51.412;5.432;2023-07-08T01:25:37;5.30;;;2.20;;
74074;SDS011;62428;51.412;5.432;2023-07-08T01:28:03;4.15;;;2.10;;
74074;SDS011;62428;51.412;5.432;2023-07-08T01:30:29;4.70;;;2.57;;
74074;SDS011;62428;51.412;5.432;2023-07-08T01:32:55;4.03;;;2.50;;
74074;SDS011;62428;51.412;5.432;2023-07-08T01:35:24;4.40;;;2.80;;
74074;SDS011;62428;51.412;5.432;2023-07-08T01:37:52;5.67;;;2.63;;
74074;SDS011;62428;51.412;5.432;2023-07-08T01:40:26;5.00;;;2.30;;
74074;SDS011;62428;51.412;5.432;2023-07-08T01:42:57;5.82;;;2.28;;
74074;SDS011;62428;51.412;5.432;2023-07-08T01:45:24;3.33;;;2.17;;
74074;SDS011;62428;51.412;5.432;2023-07-08T01:47:53;3.87;;;2.00;;
74074;SDS011;62428;51.412;5.432;2023-07-08T01:50:21;4.63;;;2.65;;
74074;SDS011;62428;51.412;5.432;2023-07-08T01:52:48;5.63;;;2.65;;
74074;SDS011;62428;51.412;5.432;2023-07-08T01:55:15;4.50;;;2.53;;
74074;SDS011;62428;51.412;5.432;2023-07-08T01:57:50;4.57;;;2.22;;
74074;SDS011;62428;51.412;5.432;2023-07-08T02:00:16;8.30;;;2.30;;
74074;SDS011;62428;51.412;5.432;2023-07-08T02:02:42;6.28;;;2.50;;
74074;SDS011;62428;51.412;5.432;2023-07-08T02:05:07;5.17;;;2.17;;
74074;SDS011;62428;51.412;5.432;2023-07-08T02:07:33;4.17;;;2.33;;
74074;SDS011;62428;51.412;5.432;2023-07-08T02:09:58;9.73;;;2.33;;
74074;SDS011;62428;51.412;5.432;2023-07-08T02:12:23;7.23;;;2.13;;
74074;SDS011;62428;51.412;5.432;2023-07-08T02:14:49;4.93;;;2.20;;
74074;SDS011;62428;51.412;5.432;2023-07-08T02:17:14;8.83;;;2.47;;
74074;SDS011;62428;51.412;5.432;2023-07-08T02:19:41;8.13;;;2.00;;
74074;SDS011;62428;51.412;5.432;2023-07-08T02:22:07;6.60;;;2.28;;
74074;SDS011;62428;51.412;5.432;2023-07-08T02:24:33;3.10;;;2.30;;
74074;SDS011;62428;51.412;5.432;2023-07-08T02:26:58;7.18;;;2.60;;
74074;SDS011;62428;51.412;5.432;2023-07-08T02:29:24;4.00;;;2.23;;
74074;SDS011;62428;51.412;5.432;2023-07-08T02:31:50;6.78;;;2.28;;
74074;SDS011;62428;51.412;5.432;2023-07-08T02:34:15;3.60;;;2.17;;
74074;SDS011;62428;51.412;5.432;2023-07-08T02:36:40;4.87;;;2.70;;
74074;SDS011;62428;51.412;5.432;2023-07-08T02:39:06;6.50;;;2.73;;
74074;SDS011;62428;51.412;5.432;2023-07-08T02:41:31;5.47;;;2.60;;
74074;SDS011;62428;51.412;5.432;2023-07-08T02:43:56;8.77;;;2.47;;
74074;SDS011;62428;51.412;5.432;2023-07-08T02:46:22;7.90;;;2.63;;
74074;SDS011;62428;51.412;5.432;2023-07-08T02:48:47;5.32;;;2.60;;
74074;SDS011;62428;51.412;5.432;2023-07-08T02:51:12;3.90;;;2.73;;
74074;SDS011;62428;51.412;5.432;2023-07-08T02:53:38;12.23;;;3.20;;
74074;SDS011;62428;51.412;5.432;2023-07-08T02:56:03;5.50;;;2.70;;
74074;SDS011;62428;51.412;5.432;2023-07-08T02:58:29;6.50;;;2.70;;
74074;SDS011;62428;51.412;5.432;2023-07-08T03:00:55;5.57;;;2.55;;
74074;SDS011;62428;51.412;5.432;2023-07-08T03:03:24;4.63;;;2.70;;
74074;SDS011;62428;51.412;5.432;2023-07-08T03:05:54;4.37;;;2.40;;
74074;SDS011;62428;51.412;5.432;2023-07-08T03:08:27;4.85;;;2.50;;
74074;SDS011;62428;51.412;5.432;2023-07-08T03:10:55;6.95;;;3.30;;
74074;SDS011;62428;51.412;5.432;2023-07-08T03:13:22;4.15;;;2.40;;
74074;SDS011;62428;51.412;5.432;2023-07-08T03:15:49;4.90;;;2.53;;
74074;SDS011;62428;51.412;5.432;2023-07-08T03:18:14;6.90;;;3.30;;
74074;SDS011;62428;51.412;5.432;2023-07-08T03:20:40;5.95;;;2.70;;
74074;SDS011;62428;51.412;5.432;2023-07-08T03:23:06;7.30;;;2.65;;
74074;SDS011;62428;51.412;5.432;2023-07-08T03:25:31;6.50;;;2.23;;
74074;SDS011;62428;51.412;5.432;2023-07-08T03:27:57;7.53;;;2.60;;
74074;SDS011;62428;51.412;5.432;2023-07-08T03:30:22;4.63;;;2.43;;
74074;SDS011;62428;51.412;5.432;2023-07-08T03:32:48;4.70;;;2.60;;
74074;SDS011;62428;51.412;5.432;2023-07-08T03:35:13;7.47;;;2.90;;
74074;SDS011;62428;51.412;5.432;2023-07-08T03:37:39;5.20;;;3.17;;
74074;SDS011;62428;51.412;5.432;2023-07-08T03:40:04;6.13;;;2.97;;
74074;SDS011;62428;51.412;5.432;2023-07-08T03:42:34;5.88;;;2.72;;
74074;SDS011;62428;51.412;5.432;2023-07-08T03:44:59;4.63;;;2.57;;
74074;SDS011;62428;51.412;5.432;2023-07-08T03:47:25;8.47;;;3.00;;
74074;SDS011;62428;51.412;5.432;2023-07-08T03:49:50;4.53;;;2.57;;
74074;SDS011;62428;51.412;5.432;2023-07-08T03:52:16;4.18;;;2.35;;
74074;SDS011;62428;51.412;5.432;2023-07-08T03:54:42;6.70;;;3.03;;
74074;SDS011;62428;51.412;5.432;2023-07-08T03:57:07;10.68;;;2.80;;
74074;SDS011;62428;51.412;5.432;2023-07-08T03:59:33;16.53;;;3.10;;
74074;SDS011;62428;51.412;5.432;2023-07-08T04:01:58;10.03;;;3.20;;
74074;SDS011;62428;51.412;5.432;2023-07-08T04:04:24;8.33;;;2.90;;
74074;SDS011;62428;51.412;5.432;2023-07-08T04:06:49;5.80;;;2.97;;
74074;SDS011;62428;51.412;5.432;2023-07-08T04:09:16;6.73;;;2.80;;
74074;SDS011;62428;51.412;5.432;2023-07-08T04:11:41;4.97;;;3.00;;
74074;SDS011;62428;51.412;5.432;2023-07-08T04:14:07;7.73;;;2.80;;
74074;SDS011;62428;51.412;5.432;2023-07-08T04:16:42;7.93;;;3.08;;
74074;SDS011;62428;51.412;5.432;2023-07-08T04:19:12;9.07;;;2.80;;
74074;SDS011;62428;51.412;5.432;2023-07-08T04:21:40;5.20;;;3.10;;
74074;SDS011;62428;51.412;5.432;2023-07-08T04:24:07;9.82;;;3.20;;
74074;SDS011;62428;51.412;5.432;2023-07-08T04:26:34;8.38;;;3.33;;
74074;SDS011;62428;51.412;5.432;2023-07-08T04:29:00;5.65;;;3.45;;
74074;SDS011;62428;51.412;5.432;2023-07-08T04:31:26;6.63;;;3.17;;
74074;SDS011;62428;51.412;5.432;2023-07-08T04:33:51;5.90;;;3.22;;
74074;SDS011;62428;51.412;5.432;2023-07-08T04:36:17;6.67;;;2.90;;
74074;SDS011;62428;51.412;5.432;2023-07-08T04:38:44;8.75;;;3.28;;
74074;SDS011;62428;51.412;5.432;2023-07-08T04:41:11;6.55;;;3.00;;
74074;SDS011;62428;51.412;5.432;2023-07-08T04:43:37;7.20;;;3.00;;
74074;SDS011;62428;51.412;5.432;2023-07-08T04:46:03;15.10;;;3.70;;
74074;SDS011;62428;51.412;5.432;2023-07-08T04:48:35;4.97;;;3.27;;
74074;SDS011;62428;51.412;5.432;2023-07-08T04:51:00;7.55;;;3.08;;
74074;SDS011;62428;51.412;5.432;2023-07-08T04:53:26;8.60;;;3.70;;
74074;SDS011;62428;51.412;5.432;2023-07-08T04:55:52;9.03;;;3.47;;
74074;SDS011;62428;51.412;5.432;2023-07-08T04:58:20;9.77;;;3.13;;
74074;SDS011;62428;51.412;5.432;2023-07-08T05:00:45;8.23;;;3.33;;
74074;SDS011;62428;51.412;5.432;2023-07-08T05:03:11;8.23;;;3.60;;
74074;SDS011;62428;51.412;5.432;2023-07-08T05:05:36;7.90;;;4.00;;
74074;SDS011;62428;51.412;5.432;2023-07-08T05:08:02;8.70;;;4.10;;
74074;SDS011;62428;51.412;5.432;2023-07-08T05:10:27;7.35;;;3.47;;
74074;SDS011;62428;51.412;5.432;2023-07-08T05:12:53;6.87;;;3.80;;
74074;SDS011;62428;51.412;5.432;2023-07-08T05:15:18;10.73;;;3.57;;
74074;SDS011;62428;51.412;5.432;2023-07-08T05:17:44;9.48;;;4.07;;
74074;SDS011;62428;51.412;5.432;2023-07-08T05:20:10;8.00;;;3.50;;
74074;SDS011;62428;51.412;5.432;2023-07-08T05:22:38;9.45;;;3.95;;
74074;SDS011;62428;51.412;5.432;2023-07-08T05:25:03;11.10;;;3.97;;
74074;SDS011;62428;51.412;5.432;2023-07-08T05:27:30;12.10;;;3.70;;
74074;SDS011;62428;51.412;5.432;2023-07-08T05:29:55;8.63;;;4.17;;
74074;SDS011;62428;51.412;5.432;2023-07-08T05:32:21;9.55;;;3.30;;
74074;SDS011;62428;51.412;5.432;2023-07-08T05:34:47;8.10;;;3.75;;
74074;SDS011;62428;51.412;5.432;2023-07-08T05:37:13;7.73;;;3.77;;
74074;SDS011;62428;51.412;5.432;2023-07-08T05:39:38;9.47;;;4.10;;
74074;SDS011;62428;51.412;5.432;2023-07-08T05:42:04;5.72;;;3.70;;
74074;SDS011;62428;51.412;5.432;2023-07-08T05:44:30;9.77;;;3.73;;
74074;SDS011;62428;51.412;5.432;2023-07-08T05:46:55;10.90;;;4.00;;
74074;SDS011;62428;51.412;5.432;2023-07-08T05:49:20;11.52;;;3.95;;
74074;SDS011;62428;51.412;5.432;2023-07-08T05:51:46;6.93;;;3.80;;
74074;SDS011;62428;51.412;5.432;2023-07-08T05:54:12;7.13;;;3.90;;
74074;SDS011;62428;51.412;5.432;2023-07-08T05:56:37;10.82;;;3.85;;
74074;SDS011;62428;51.412;5.432;2023-07-08T05:59:03;8.43;;;4.20;;
74074;SDS011;62428;51.412;5.432;2023-07-08T06:01:29;7.63;;;4.07;;
74074;SDS011;62428;51.412;5.432;2023-07-08T06:03:55;10.53;;;4.03;;
74074;SDS011;62428;51.412;5.432;2023-07-08T06:06:25;9.57;;;3.80;;
74074;SDS011;62428;51.412;5.432;2023-07-08T06:08:51;9.60;;;4.28;;
74074;SDS011;62428;51.412;5.432;2023-07-08T06:11:17;11.73;;;3.92;;
74074;SDS011;62428;51.412;5.432;2023-07-08T06:13:42;9.80;;;4.40;;
74074;SDS011;62428;51.412;5.432;2023-07-08T06:16:08;10.10;;;3.87;;
74074;SDS011;62428;51.412;5.432;2023-07-08T06:18:34;7.80;;;3.97;;
74074;SDS011;62428;51.412;5.432;2023-07-08T06:20:59;8.20;;;3.30;;
74074;SDS011;62428;51.412;5.432;2023-07-08T06:23:25;6.83;;;3.37;;
74074;SDS011;62428;51.412;5.432;2023-07-08T06:25:51;6.57;;;3.30;;
74074;SDS011;62428;51.412;5.432;2023-07-08T06:28:17;9.75;;;3.90;;
74074;SDS011;62428;51.412;5.432;2023-07-08T06:30:43;8.40;;;3.40;;
74074;SDS011;62428;51.412;5.432;2023-07-08T06:33:08;7.53;;;3.40;;
74074;SDS011;62428;51.412;5.432;2023-07-08T06:35:34;7.93;;;3.23;;
74074;SDS011;62428;51.412;5.432;2023-07-08T06:37:59;7.45;;;3.45;;
74074;SDS011;62428;51.412;5.432;2023-07-08T06:40:24;7.93;;;3.60;;
74074;SDS011;62428;51.412;5.432;2023-07-08T06:42:50;6.90;;;3.63;;
74074;SDS011;62428;51.412;5.432;2023-07-08T06:45:15;9.70;;;3.93;;
74074;SDS011;62428;51.412;5.432;2023-07-08T06:47:41;10.40;;;3.83;;
74074;SDS011;62428;51.412;5.432;2023-07-08T06:50:06;7.53;;;3.93;;
74074;SDS011;62428;51.412;5.432;2023-07-08T06:52:32;6.82;;;3.70;;
74074;SDS011;62428;51.412;5.432;2023-07-08T06:54:59;8.95;;;4.05;;
74074;SDS011;62428;51.412;5.432;2023-07-08T06:57:26;8.95;;;3.47;;
74074;SDS011;62428;51.412;5.432;2023-07-08T06:59:51;9.07;;;3.97;;
74074;SDS011;62428;51.412;5.432;2023-07-08T07:02:17;7.07;;;3.57;;
74074;SDS011;62428;51.412;5.432;2023-07-08T07:04:42;8.55;;;3.80;;
74074;SDS011;62428;51.412;5.432;2023-07-08T07:07:08;6.35;;;3.80;;
74074;SDS011;62428;51.412;5.432;2023-07-08T07:09:34;9.00;;;4.33;;
74074;SDS011;62428;51.412;5.432;2023-07-08T07:11:59;8.07;;;4.10;;
74074;SDS011;62428;51.412;5.432;2023-07-08T07:14:24;8.93;;;3.90;;
74074;SDS011;62428;51.412;5.432;2023-07-08T07:16:50;9.83;;;4.00;;
74074;SDS011;62428;51.412;5.432;2023-07-08T07:19:15;7.83;;;3.93;;
74074;SDS011;62428;51.412;5.432;2023-07-08T07:21:40;7.07;;;4.10;;
74074;SDS011;62428;51.412;5.432;2023-07-08T07:24:06;7.23;;;3.97;;
74074;SDS011;62428;51.412;5.432;2023-07-08T07:26:32;7.07;;;4.70;;
74074;SDS011;62428;51.412;5.432;2023-07-08T07:28:57;8.68;;;3.83;;
74074;SDS011;62428;51.412;5.432;2023-07-08T07:31:23;10.40;;;4.63;;
74074;SDS011;62428;51.412;5.432;2023-07-08T07:33:48;8.33;;;4.27;;
74074;SDS011;62428;51.412;5.432;2023-07-08T07:36:14;6.55;;;4.18;;
74074;SDS011;62428;51.412;5.432;2023-07-08T07:38:39;7.40;;;4.07;;
74074;SDS011;62428;51.412;5.432;2023-07-08T07:41:04;11.27;;;5.13;;
74074;SDS011;62428;51.412;5.432;2023-07-08T07:43:32;9.90;;;4.80;;
74074;SDS011;62428;51.412;5.432;2023-07-08T07:45:58;10.60;;;4.13;;
74074;SDS011;62428;51.412;5.432;2023-07-08T07:48:24;11.93;;;4.77;;
74074;SDS011;62428;51.412;5.432;2023-07-08T07:50:49;8.67;;;5.00;;
74074;SDS011;62428;51.412;5.432;2023-07-08T07:53:16;9.23;;;4.57;;
74074;SDS011;62428;51.412;5.432;2023-07-08T07:55:42;11.38;;;5.10;;
74074;SDS011;62428;51.412;5.432;2023-07-08T07:58:07;9.63;;;4.23;;
74074;SDS011;62428;51.412;5.432;2023-07-08T08:00:33;9.23;;;4.67;;
74074;SDS011;62428;51.412;5.432;2023-07-08T08:02:59;8.70;;;5.40;;
74074;SDS011;62428;51.412;5.432;2023-07-08T08:05:24;12.87;;;4.77;;
74074;SDS011;62428;51.412;5.432;2023-07-08T08:07:50;13.93;;;5.40;;
74074;SDS011;62428;51.412;5.432;2023-07-08T08:10:15;10.00;;;5.47;;
74074;SDS011;62428;51.412;5.432;2023-07-08T08:12:41;10.00;;;5.03;;
74074;SDS011;62428;51.412;5.432;2023-07-08T08:15:06;8.93;;;4.85;;
74074;SDS011;62428;51.412;5.432;2023-07-08T08:17:32;9.13;;;4.93;;
74074;SDS011;62428;51.412;5.432;2023-07-08T08:19:58;10.10;;;6.07;;
74074;SDS011;62428;51.412;5.432;2023-07-08T08:22:23;12.40;;;4.87;;
74074;SDS011;62428;51.412;5.432;2023-07-08T08:24:49;15.30;;;5.77;;
74074;SDS011;62428;51.412;5.432;2023-07-08T08:27:15;8.45;;;5.35;;
74074;SDS011;62428;51.412;5.432;2023-07-08T08:29:40;10.43;;;5.80;;
74074;SDS011;62428;51.412;5.432;2023-07-08T08:32:05;11.10;;;5.00;;
74074;SDS011;62428;51.412;5.432;2023-07-08T08:34:31;11.05;;;5.80;;
74074;SDS011;62428;51.412;5.432;2023-07-08T08:36:57;9.87;;;5.77;;
74074;SDS011;62428;51.412;5.432;2023-07-08T08:39:22;11.15;;;5.18;;
74074;SDS011;62428;51.412;5.432;2023-07-08T08:41:49;8.53;;;4.90;;
74074;SDS011;62428;51.412;5.432;2023-07-08T08:44:18;10.20;;;5.55;;
74074;SDS011;62428;51.412;5.432;2023-07-08T08:46:57;8.73;;;5.78;;
74074;SDS011;62428;51.412;5.432;2023-07-08T08:49:30;11.45;;;6.65;;
74074;SDS011;62428;51.412;5.432;2023-07-08T08:52:02;8.65;;;6.03;;
74074;SDS011;62428;51.412;5.432;2023-07-08T08:54:28;8.83;;;5.67;;
74074;SDS011;62428;51.412;5.432;2023-07-08T08:57:18;8.55;;;5.60;;
74074;SDS011;62428;51.412;5.432;2023-07-08T08:59:55;12.15;;;6.43;;
74074;SDS011;62428;51.412;5.432;2023-07-08T09:04:59;13.23;;;6.20;;
74074;SDS011;62428;51.412;5.432;2023-07-08T09:07:28;9.45;;;6.18;;
74074;SDS011;62428;51.412;5.432;2023-07-08T09:10:09;9.70;;;6.40;;
74074;SDS011;62428;51.412;5.432;2023-07-08T09:12:55;12.52;;;6.32;;
74074;SDS011;62428;51.412;5.432;2023-07-08T09:15:25;11.70;;;6.45;;
74074;SDS011;62428;51.412;5.432;2023-07-08T09:17:51;8.83;;;6.60;;
74074;SDS011;62428;51.412;5.432;2023-07-08T09:20:25;9.68;;;6.68;;
74074;SDS011;62428;51.412;5.432;2023-07-08T09:23:13;12.40;;;7.03;;
74074;SDS011;62428;51.412;5.432;2023-07-08T09:25:46;8.50;;;5.53;;
74074;SDS011;62428;51.412;5.432;2023-07-08T09:28:16;11.25;;;5.97;;
74074;SDS011;62428;51.412;5.432;2023-07-08T09:30:41;11.60;;;6.50;;
74074;SDS011;62428;51.412;5.432;2023-07-08T09:33:13;13.50;;;6.63;;
74074;SDS011;62428;51.412;5.432;2023-07-08T09:35:42;11.00;;;6.35;;
74074;SDS011;62428;51.412;5.432;2023-07-08T09:38:13;11.40;;;6.57;;
74074;SDS011;62428;51.412;5.432;2023-07-08T09:40:42;12.43;;;6.05;;
74074;SDS011;62428;51.412;5.432;2023-07-08T09:45:42;14.00;;;6.07;;
74074;SDS011;62428;51.412;5.432;2023-07-08T09:48:24;11.57;;;6.00;;
74074;SDS011;62428;51.412;5.432;2023-07-08T09:50:56;9.18;;;5.90;;
74074;SDS011;62428;51.412;5.432;2023-07-08T09:53:22;9.13;;;6.20;;
74074;SDS011;62428;51.412;5.432;2023-07-08T09:55:49;10.40;;;5.88;;
74074;SDS011;62428;51.412;5.432;2023-07-08T09:58:21;9.93;;;5.82;;
74074;SDS011;62428;51.412;5.432;2023-07-08T10:00:54;9.65;;;5.50;;
74074;SDS011;62428;51.412;5.432;2023-07-08T10:03:22;11.18;;;6.10;;
74074;SDS011;62428;51.412;5.432;2023-07-08T10:05:58;10.60;;;5.50;;
74074;SDS011;62428;51.412;5.432;2023-07-08T10:08:42;8.20;;;5.63;;
74074;SDS011;62428;51.412;5.432;2023-07-08T10:11:25;9.30;;;5.38;;
74074;SDS011;62428;51.412;5.432;2023-07-08T10:13:54;8.30;;;6.15;;
74074;SDS011;62428;51.412;5.432;2023-07-08T10:16:25;12.65;;;5.85;;
74074;SDS011;62428;51.412;5.432;2023-07-08T10:18:53;10.03;;;5.83;;
74074;SDS011;62428;51.412;5.432;2023-07-08T10:26:49;11.37;;;5.80;;
74074;SDS011;62428;51.412;5.432;2023-07-08T10:29:52;7.82;;;6.22;;
74074;SDS011;62428;51.412;5.432;2023-07-08T10:32:37;8.05;;;5.97;;
74074;SDS011;62428;51.412;5.432;2023-07-08T10:35:23;11.38;;;6.40;;
74074;SDS011;62428;51.412;5.432;2023-07-08T10:41:05;11.20;;;6.00;;
74074;SDS011;62428;51.412;5.432;2023-07-08T10:49:25;11.13;;;6.07;;
74074;SDS011;62428;51.412;5.432;2023-07-08T11:06:23;8.75;;;5.88;;
74074;SDS011;62428;51.412;5.432;2023-07-08T11:08:55;8.37;;;5.67;;
74074;SDS011;62428;51.412;5.432;2023-07-08T11:11:40;10.90;;;5.93;;
74074;SDS011;62428;51.412;5.432;2023-07-08T11:14:17;12.52;;;6.38;;
74074;SDS011;62428;51.412;5.432;2023-07-08T11:17:03;7.80;;;5.70;;
74074;SDS011;62428;51.412;5.432;2023-07-08T11:19:42;9.65;;;6.65;;
74074;SDS011;62428;51.412;5.432;2023-07-08T11:22:13;9.50;;;5.93;;
74074;SDS011;62428;51.412;5.432;2023-07-08T11:24:42;8.90;;;6.28;;
74074;SDS011;62428;51.412;5.432;2023-07-08T11:29:57;10.15;;;6.35;;
74074;SDS011;62428;51.412;5.432;2023-07-08T11:32:27;13.30;;;6.45;;
74074;SDS011;62428;51.412;5.432;2023-07-08T11:34:56;12.73;;;5.83;;
74074;SDS011;62428;51.412;5.432;2023-07-08T11:37:24;10.63;;;6.40;;
74074;SDS011;62428;51.412;5.432;2023-07-08T11:39:55;11.75;;;5.63;;
74074;SDS011;62428;51.412;5.432;2023-07-08T11:42:42;11.63;;;6.05;;
74074;SDS011;62428;51.412;5.432;2023-07-08T11:45:54;11.77;;;6.30;;
74074;SDS011;62428;51.412;5.432;2023-07-08T11:50:54;9.60;;;6.00;;
74074;SDS011;62428;51.412;5.432;2023-07-08T12:03:38;8.67;;;6.50;;
74074;SDS011;62428;51.412;5.432;2023-07-08T12:08:59;9.05;;;6.30;;
74074;SDS011;62428;51.412;5.432;2023-07-08T12:11:39;10.88;;;6.40;;
74074;SDS011;62428;51.412;5.432;2023-07-08T12:14:07;11.50;;;6.07;;
74074;SDS011;62428;51.412;5.432;2023-07-08T12:16:33;9.30;;;6.77;;
74074;SDS011;62428;51.412;5.432;2023-07-08T12:18:59;9.10;;;5.95;;
74074;SDS011;62428;51.412;5.432;2023-07-08T12:21:26;10.60;;;6.15;;
74074;SDS011;62428;51.412;5.432;2023-07-08T12:23:53;11.90;;;6.78;;
74074;SDS011;62428;51.412;5.432;2023-07-08T12:26:19;8.90;;;5.57;;
74074;SDS011;62428;51.412;5.432;2023-07-08T12:28:46;8.55;;;6.00;;
74074;SDS011;62428;51.412;5.432;2023-07-08T12:31:16;9.60;;;6.47;;
74074;SDS011;62428;51.412;5.432;2023-07-08T12:33:43;7.70;;;5.95;;
74074;SDS011;62428;51.412;5.432;2023-07-08T12:36:18;12.82;;;6.13;;
74074;SDS011;62428;51.412;5.432;2023-07-08T12:38:52;9.45;;;5.82;;
74074;SDS011;62428;51.412;5.432;2023-07-08T12:41:25;10.48;;;6.65;;
74074;SDS011;62428;51.412;5.432;2023-07-08T12:43:54;10.37;;;6.23;;
74074;SDS011;62428;51.412;5.432;2023-07-08T12:46:21;11.00;;;6.40;;
74074;SDS011;62428;51.412;5.432;2023-07-08T12:48:47;14.60;;;7.28;;
74074;SDS011;62428;51.412;5.432;2023-07-08T12:51:14;11.53;;;6.53;;
74074;SDS011;62428;51.412;5.432;2023-07-08T12:53:41;12.07;;;6.72;;
74074;SDS011;62428;51.412;5.432;2023-07-08T12:56:07;10.93;;;6.07;;
74074;SDS011;62428;51.412;5.432;2023-07-08T12:58:52;11.70;;;6.57;;
74074;SDS011;62428;51.412;5.432;2023-07-08T13:01:29;14.50;;;7.10;;
74074;SDS011;62428;51.412;5.432;2023-07-08T13:03:58;11.95;;;6.50;;
74074;SDS011;62428;51.412;5.432;2023-07-08T13:06:28;9.02;;;6.25;;
74074;SDS011;62428;51.412;5.432;2023-07-08T13:09:00;10.70;;;6.87;;
74074;SDS011;62428;51.412;5.432;2023-07-08T13:11:33;11.25;;;6.35;;
74074;SDS011;62428;51.412;5.432;2023-07-08T13:14:01;11.77;;;7.40;;
74074;SDS011;62428;51.412;5.432;2023-07-08T13:16:32;10.82;;;6.47;;
74074;SDS011;62428;51.412;5.432;2023-07-08T13:19:00;9.40;;;6.22;;
74074;SDS011;62428;51.412;5.432;2023-07-08T13:21:26;11.90;;;7.33;;
74074;SDS011;62428;51.412;5.432;2023-07-08T13:23:53;11.65;;;6.38;;
74074;SDS011;62428;51.412;5.432;2023-07-08T13:26:20;10.20;;;7.20;;
74074;SDS011;62428;51.412;5.432;2023-07-08T13:28:48;9.55;;;7.28;;
74074;SDS011;62428;51.412;5.432;2023-07-08T13:31:18;9.70;;;6.27;;
74074;SDS011;62428;51.412;5.432;2023-07-08T13:33:54;7.72;;;6.18;;
74074;SDS011;62428;51.412;5.432;2023-07-08T13:36:24;11.57;;;6.07;;
74074;SDS011;62428;51.412;5.432;2023-07-08T13:38:56;11.32;;;6.25;;
74074;SDS011;62428;51.412;5.432;2023-07-08T13:41:23;7.57;;;5.95;;
74074;SDS011;62428;51.412;5.432;2023-07-08T13:43:49;9.60;;;6.23;;
74074;SDS011;62428;51.412;5.432;2023-07-08T13:49:43;13.02;;;7.30;;
74074;SDS011;62428;51.412;5.432;2023-07-08T13:52:06;9.82;;;7.03;;
74074;SDS011;62428;51.412;5.432;2023-07-08T13:54:42;9.88;;;7.05;;
74074;SDS011;62428;51.412;5.432;2023-07-08T13:57:11;7.73;;;5.73;;
74074;SDS011;62428;51.412;5.432;2023-07-08T13:59:40;12.30;;;6.00;;
74074;SDS011;62428;51.412;5.432;2023-07-08T14:02:13;12.63;;;5.87;;
74074;SDS011;62428;51.412;5.432;2023-07-08T14:04:39;13.73;;;7.05;;
74074;SDS011;62428;51.412;5.432;2023-07-08T14:07:08;10.87;;;6.67;;
74074;SDS011;62428;51.412;5.432;2023-07-08T14:09:40;10.73;;;5.40;;
74074;SDS011;62428;51.412;5.432;2023-07-08T14:12:05;8.80;;;5.37;;
74074;SDS011;62428;51.412;5.432;2023-07-08T14:14:32;10.65;;;6.75;;
74074;SDS011;62428;51.412;5.432;2023-07-08T14:16:57;11.10;;;6.47;;
74074;SDS011;62428;51.412;5.432;2023-07-08T14:19:32;7.47;;;4.93;;
74074;SDS011;62428;51.412;5.432;2023-07-08T14:22:00;11.67;;;5.30;;
74074;SDS011;62428;51.412;5.432;2023-07-08T14:24:31;9.45;;;5.88;;
74074;SDS011;62428;51.412;5.432;2023-07-08T14:26:56;11.63;;;6.03;;
74074;SDS011;62428;51.412;5.432;2023-07-08T14:29:22;11.80;;;5.77;;
74074;SDS011;62428;51.412;5.432;2023-07-08T14:31:47;10.65;;;5.60;;
74074;SDS011;62428;51.412;5.432;2023-07-08T14:34:13;10.27;;;6.30;;
74074;SDS011;62428;51.412;5.432;2023-07-08T14:36:47;8.85;;;6.70;;
74074;SDS011;62428;51.412;5.432;2023-07-08T14:39:13;9.33;;;6.33;;
74074;SDS011;62428;51.412;5.432;2023-07-08T14:41:40;7.82;;;5.75;;
74074;SDS011;62428;51.412;5.432;2023-07-08T14:44:22;13.53;;;6.17;;
74074;SDS011;62428;51.412;5.432;2023-07-08T14:46:50;12.75;;;6.93;;
74074;SDS011;62428;51.412;5.432;2023-07-08T14:49:18;10.07;;;6.22;;
74074;SDS011;62428;51.412;5.432;2023-07-08T14:51:45;12.98;;;6.50;;
74074;SDS011;62428;51.412;5.432;2023-07-08T14:54:11;12.40;;;6.33;;
74074;SDS011;62428;51.412;5.432;2023-07-08T14:56:36;12.73;;;6.15;;
74074;SDS011;62428;51.412;5.432;2023-07-08T14:59:03;14.30;;;6.68;;
74074;SDS011;62428;51.412;5.432;2023-07-08T15:01:28;11.13;;;6.60;;
74074;SDS011;62428;51.412;5.432;2023-07-08T15:03:55;9.63;;;6.15;;
74074;SDS011;62428;51.412;5.432;2023-07-08T15:06:21;8.73;;;6.43;;
74074;SDS011;62428;51.412;5.432;2023-07-08T15:08:47;12.97;;;7.07;;
74074;SDS011;62428;51.412;5.432;2023-07-08T15:11:12;9.47;;;6.07;;
74074;SDS011;62428;51.412;5.432;2023-07-08T15:13:38;10.87;;;5.80;;
74074;SDS011;62428;51.412;5.432;2023-07-08T15:16:05;10.05;;;6.07;;
74074;SDS011;62428;51.412;5.432;2023-07-08T15:18:37;9.93;;;6.68;;
74074;SDS011;62428;51.412;5.432;2023-07-08T15:21:02;11.03;;;6.00;;
74074;SDS011;62428;51.412;5.432;2023-07-08T15:23:28;8.65;;;5.68;;
74074;SDS011;62428;51.412;5.432;2023-07-08T15:25:54;10.10;;;5.63;;
74074;SDS011;62428;51.412;5.432;2023-07-08T15:28:20;9.27;;;5.97;;
74074;SDS011;62428;51.412;5.432;2023-07-08T15:31:00;11.07;;;5.18;;
74074;SDS011;62428;51.412;5.432;2023-07-08T15:33:27;9.52;;;6.22;;
74074;SDS011;62428;51.412;5.432;2023-07-08T15:35:53;9.57;;;5.73;;
74074;SDS011;62428;51.412;5.432;2023-07-08T15:38:19;8.37;;;4.90;;
74074;SDS011;62428;51.412;5.432;2023-07-08T15:40:44;12.70;;;5.50;;
74074;SDS011;62428;51.412;5.432;2023-07-08T15:43:11;11.27;;;5.70;;
74074;SDS011;62428;51.412;5.432;2023-07-08T15:45:38;12.68;;;5.75;;
74074;SDS011;62428;51.412;5.432;2023-07-08T15:48:08;8.23;;;5.50;;
74074;SDS011;62428;51.412;5.432;2023-07-08T15:50:37;7.85;;;5.18;;
74074;SDS011;62428;51.412;5.432;2023-07-08T15:53:02;9.73;;;6.00;;